sensor_id;sensor_type;location;lat;lon;timestamp;P1;durP1;ratioP1;P2;durP2;ratioP2
29414;SDS011;20303;48.302;11.914;2023-11-19T00:04:57;7.00;;;3.83;;
29414;SDS011;20303;48.302;11.914;2023-11-19T00:14:58;8.10;;;3.80;;
29414;SDS011;20303;48.302;11.914;2023-11-19T00:24:59;7.15;;;3.20;;
29414;SDS011;20303;48.302;11.914;2023-11-19T00:35:00;7.15;;;3.53;;
29414;SDS011;20303;48.302;11.914;2023-11-19T00:45:01;7.18;;;3.38;;
29414;SDS011;20303;48.302;11.914;2023-11-19T00:55:03;5.35;;;2.97;;
29414;SDS011;20303;48.302;11.914;2023-11-19T01:05:04;5.88;;;3.20;;
29414;SDS011;20303;48.302;11.914;2023-11-19T01:15:08;5.68;;;2.90;;
29414;SDS011;20303;48.302;11.914;2023-11-19T01:25:09;5.15;;;2.75;;
29414;SDS011;20303;48.302;11.914;2023-11-19T01:35:10;5.72;;;2.55;;
29414;SDS011;20303;48.302;11.914;2023-11-19T01:45:11;3.28;;;2.22;;
29414;SDS011;20303;48.302;11.914;2023-11-19T01:55:27;3.08;;;1.95;;
29414;SDS011;20303;48.302;11.914;2023-11-19T02:05:30;4.40;;;2.08;;
29414;SDS011;20303;48.302;11.914;2023-11-19T02:15:32;2.83;;;1.90;;
29414;SDS011;20303;48.302;11.914;2023-11-19T02:25:34;3.20;;;1.88;;
29414;SDS011;20303;48.302;11.914;2023-11-19T02:35:35;3.05;;;1.88;;
29414;SDS011;20303;48.302;11.914;2023-11-19T02:45:36;4.13;;;1.63;;
29414;SDS011;20303;48.302;11.914;2023-11-19T02:55:37;4.22;;;2.05;;
29414;SDS011;20303;48.302;11.914;2023-11-19T03:05:40;2.97;;;1.80;;
29414;SDS011;20303;48.302;11.914;2023-11-19T03:15:41;2.10;;;1.50;;
29414;SDS011;20303;48.302;11.914;2023-11-19T03:25:42;2.92;;;1.50;;
29414;SDS011;20303;48.302;11.914;2023-11-19T03:35:43;3.67;;;1.30;;
29414;SDS011;20303;48.302;11.914;2023-11-19T03:45:46;2.10;;;1.50;;
29414;SDS011;20303;48.302;11.914;2023-11-19T03:55:47;2.30;;;1.48;;
29414;SDS011;20303;48.302;11.914;2023-11-19T04:05:48;2.65;;;1.30;;
29414;SDS011;20303;48.302;11.914;2023-11-19T04:15:49;1.95;;;1.30;;
29414;SDS011;20303;48.302;11.914;2023-11-19T04:25:50;2.00;;;1.30;;
29414;SDS011;20303;48.302;11.914;2023-11-19T04:35:51;1.88;;;1.20;;
29414;SDS011;20303;48.302;11.914;2023-11-19T04:45:52;2.17;;;1.10;;
29414;SDS011;20303;48.302;11.914;2023-11-19T04:55:53;2.05;;;1.20;;
29414;SDS011;20303;48.302;11.914;2023-11-19T05:05:54;1.70;;;1.20;;
29414;SDS011;20303;48.302;11.914;2023-11-19T05:15:55;2.45;;;1.20;;
29414;SDS011;20303;48.302;11.914;2023-11-19T05:35:58;2.65;;;1.00;;
29414;SDS011;20303;48.302;11.914;2023-11-19T05:45:59;1.88;;;1.00;;
29414;SDS011;20303;48.302;11.914;2023-11-19T05:56:01;2.28;;;1.10;;
29414;SDS011;20303;48.302;11.914;2023-11-19T06:06:04;2.28;;;1.10;;
29414;SDS011;20303;48.302;11.914;2023-11-19T06:16:05;2.00;;;1.02;;
29414;SDS011;20303;48.302;11.914;2023-11-19T06:26:07;3.00;;;0.90;;
29414;SDS011;20303;48.302;11.914;2023-11-19T06:36:08;2.30;;;1.15;;
29414;SDS011;20303;48.302;11.914;2023-11-19T06:46:19;3.22;;;0.90;;
29414;SDS011;20303;48.302;11.914;2023-11-19T06:56:20;2.17;;;1.02;;
29414;SDS011;20303;48.302;11.914;2023-11-19T07:06:22;2.58;;;1.00;;
29414;SDS011;20303;48.302;11.914;2023-11-19T07:16:23;2.17;;;0.95;;
29414;SDS011;20303;48.302;11.914;2023-11-19T07:26:24;1.73;;;0.90;;
29414;SDS011;20303;48.302;11.914;2023-11-19T07:36:25;3.03;;;0.90;;
29414;SDS011;20303;48.302;11.914;2023-11-19T07:56:27;4.37;;;1.30;;
29414;SDS011;20303;48.302;11.914;2023-11-19T08:16:29;3.57;;;1.90;;
29414;SDS011;20303;48.302;11.914;2023-11-19T08:26:30;4.55;;;2.17;;
29414;SDS011;20303;48.302;11.914;2023-11-19T08:36:31;5.22;;;2.35;;
29414;SDS011;20303;48.302;11.914;2023-11-19T08:56:33;4.27;;;2.47;;
29414;SDS011;20303;48.302;11.914;2023-11-19T09:06:35;6.18;;;2.53;;
29414;SDS011;20303;48.302;11.914;2023-11-19T09:16:36;4.63;;;2.92;;
29414;SDS011;20303;48.302;11.914;2023-11-19T09:26:38;7.07;;;3.10;;
29414;SDS011;20303;48.302;11.914;2023-11-19T09:36:41;6.78;;;3.40;;
29414;SDS011;20303;48.302;11.914;2023-11-19T09:46:44;6.47;;;3.10;;
29414;SDS011;20303;48.302;11.914;2023-11-19T09:56:46;6.57;;;2.90;;
29414;SDS011;20303;48.302;11.914;2023-11-19T10:06:47;6.72;;;3.38;;
29414;SDS011;20303;48.302;11.914;2023-11-19T10:16:50;6.53;;;3.15;;
29414;SDS011;20303;48.302;11.914;2023-11-19T10:26:51;9.55;;;3.35;;
29414;SDS011;20303;48.302;11.914;2023-11-19T10:36:52;5.88;;;3.55;;
29414;SDS011;20303;48.302;11.914;2023-11-19T10:46:53;6.35;;;2.97;;
29414;SDS011;20303;48.302;11.914;2023-11-19T10:56:54;9.82;;;3.35;;
29414;SDS011;20303;48.302;11.914;2023-11-19T11:06:58;5.88;;;3.28;;
29414;SDS011;20303;48.302;11.914;2023-11-19T11:17:00;6.28;;;3.00;;
29414;SDS011;20303;48.302;11.914;2023-11-19T11:27:10;9.48;;;3.03;;
29414;SDS011;20303;48.302;11.914;2023-11-19T11:57:47;6.88;;;3.20;;
29414;SDS011;20303;48.302;11.914;2023-11-19T12:07:55;7.22;;;2.90;;
29414;SDS011;20303;48.302;11.914;2023-11-19T12:18:00;6.40;;;2.65;;
29414;SDS011;20303;48.302;11.914;2023-11-19T12:28:01;9.90;;;2.78;;
29414;SDS011;20303;48.302;11.914;2023-11-19T12:38:04;5.95;;;2.70;;
29414;SDS011;20303;48.302;11.914;2023-11-19T12:48:08;7.35;;;2.95;;
29414;SDS011;20303;48.302;11.914;2023-11-19T12:58:10;5.53;;;3.00;;
29414;SDS011;20303;48.302;11.914;2023-11-19T13:08:11;7.38;;;2.90;;
29414;SDS011;20303;48.302;11.914;2023-11-19T13:18:12;11.15;;;3.00;;
29414;SDS011;20303;48.302;11.914;2023-11-19T13:28:15;7.00;;;2.90;;
29414;SDS011;20303;48.302;11.914;2023-11-19T13:38:16;8.32;;;3.30;;
29414;SDS011;20303;48.302;11.914;2023-11-19T13:48:18;6.30;;;3.22;;
29414;SDS011;20303;48.302;11.914;2023-11-19T13:58:19;8.43;;;3.20;;
29414;SDS011;20303;48.302;11.914;2023-11-19T14:08:20;7.03;;;2.97;;
29414;SDS011;20303;48.302;11.914;2023-11-19T14:18:21;7.90;;;3.20;;
29414;SDS011;20303;48.302;11.914;2023-11-19T14:28:23;8.80;;;3.58;;
29414;SDS011;20303;48.302;11.914;2023-11-19T14:38:26;7.82;;;3.50;;
29414;SDS011;20303;48.302;11.914;2023-11-19T14:48:27;8.40;;;3.58;;
29414;SDS011;20303;48.302;11.914;2023-11-19T14:58:28;9.23;;;3.50;;
29414;SDS011;20303;48.302;11.914;2023-11-19T15:08:29;11.05;;;3.72;;
29414;SDS011;20303;48.302;11.914;2023-11-19T15:18:30;11.60;;;3.88;;
29414;SDS011;20303;48.302;11.914;2023-11-19T15:28:31;9.38;;;3.78;;
29414;SDS011;20303;48.302;11.914;2023-11-19T15:38:32;9.73;;;3.78;;
29414;SDS011;20303;48.302;11.914;2023-11-19T15:48:34;10.40;;;3.90;;
29414;SDS011;20303;48.302;11.914;2023-11-19T15:58:35;7.85;;;3.85;;
29414;SDS011;20303;48.302;11.914;2023-11-19T16:08:36;11.20;;;4.32;;
29414;SDS011;20303;48.302;11.914;2023-11-19T16:18:38;10.60;;;4.50;;
29414;SDS011;20303;48.302;11.914;2023-11-19T16:28:39;14.35;;;5.07;;
29414;SDS011;20303;48.302;11.914;2023-11-19T16:38:44;14.77;;;5.43;;
29414;SDS011;20303;48.302;11.914;2023-11-19T16:48:47;16.48;;;5.10;;
29414;SDS011;20303;48.302;11.914;2023-11-19T16:58:48;18.83;;;5.70;;
29414;SDS011;20303;48.302;11.914;2023-11-19T17:08:49;13.48;;;5.50;;
29414;SDS011;20303;48.302;11.914;2023-11-19T17:18:51;18.42;;;5.80;;
29414;SDS011;20303;48.302;11.914;2023-11-19T17:28:53;17.00;;;5.85;;
29414;SDS011;20303;48.302;11.914;2023-11-19T17:38:54;17.85;;;5.20;;
29414;SDS011;20303;48.302;11.914;2023-11-19T17:48:55;13.95;;;5.85;;
29414;SDS011;20303;48.302;11.914;2023-11-19T17:58:56;22.38;;;5.75;;
29414;SDS011;20303;48.302;11.914;2023-11-19T18:08:57;15.60;;;5.55;;
29414;SDS011;20303;48.302;11.914;2023-11-19T18:18:58;11.88;;;4.90;;
29414;SDS011;20303;48.302;11.914;2023-11-19T18:28:59;11.77;;;5.22;;
29414;SDS011;20303;48.302;11.914;2023-11-19T18:39:00;9.25;;;4.65;;
29414;SDS011;20303;48.302;11.914;2023-11-19T18:49:01;11.23;;;4.65;;
29414;SDS011;20303;48.302;11.914;2023-11-19T18:59:02;12.52;;;4.72;;
29414;SDS011;20303;48.302;11.914;2023-11-19T19:09:05;9.43;;;4.20;;
29414;SDS011;20303;48.302;11.914;2023-11-19T19:19:06;10.57;;;4.18;;
29414;SDS011;20303;48.302;11.914;2023-11-19T19:29:08;9.30;;;4.28;;
29414;SDS011;20303;48.302;11.914;2023-11-19T19:39:11;8.05;;;3.50;;
29414;SDS011;20303;48.302;11.914;2023-11-19T19:49:15;8.18;;;3.78;;
29414;SDS011;20303;48.302;11.914;2023-11-19T19:59:16;8.05;;;3.38;;
29414;SDS011;20303;48.302;11.914;2023-11-19T20:09:17;7.35;;;3.40;;
29414;SDS011;20303;48.302;11.914;2023-11-19T20:19:18;6.47;;;3.25;;
29414;SDS011;20303;48.302;11.914;2023-11-19T20:29:19;8.73;;;3.10;;
29414;SDS011;20303;48.302;11.914;2023-11-19T20:39:20;8.95;;;2.95;;
29414;SDS011;20303;48.302;11.914;2023-11-19T20:49:21;7.32;;;2.72;;
29414;SDS011;20303;48.302;11.914;2023-11-19T20:59:22;5.68;;;2.80;;
29414;SDS011;20303;48.302;11.914;2023-11-19T21:09:23;10.80;;;3.20;;
29414;SDS011;20303;48.302;11.914;2023-11-19T21:19:24;7.97;;;2.65;;
29414;SDS011;20303;48.302;11.914;2023-11-19T21:29:26;9.07;;;2.85;;
29414;SDS011;20303;48.302;11.914;2023-11-19T21:39:27;5.70;;;2.67;;
29414;SDS011;20303;48.302;11.914;2023-11-19T21:49:28;6.35;;;2.38;;
29414;SDS011;20303;48.302;11.914;2023-11-19T21:59:29;6.80;;;2.28;;
29414;SDS011;20303;48.302;11.914;2023-11-19T22:09:31;5.32;;;2.20;;
29414;SDS011;20303;48.302;11.914;2023-11-19T22:19:32;3.97;;;2.30;;
29414;SDS011;20303;48.302;11.914;2023-11-19T22:29:36;4.88;;;2.30;;
29414;SDS011;20303;48.302;11.914;2023-11-19T22:39:37;4.97;;;2.10;;
29414;SDS011;20303;48.302;11.914;2023-11-19T22:49:38;5.18;;;2.20;;
29414;SDS011;20303;48.302;11.914;2023-11-19T22:59:39;3.83;;;1.83;;
29414;SDS011;20303;48.302;11.914;2023-11-19T23:09:40;4.10;;;1.67;;
29414;SDS011;20303;48.302;11.914;2023-11-19T23:19:41;3.83;;;1.70;;
29414;SDS011;20303;48.302;11.914;2023-11-19T23:29:43;3.95;;;1.77;;
29414;SDS011;20303;48.302;11.914;2023-11-19T23:39:44;4.03;;;1.70;;
29414;SDS011;20303;48.302;11.914;2023-11-19T23:49:45;3.40;;;1.70;;
29414;SDS011;20303;48.302;11.914;2023-11-19T23:59:46;3.17;;;1.60;;
